CA-0360 weather

CLOSED Chucker Farm Airport
Ste-Marthe, Quebec, Canada

Public forecast

Using degrees Celsius for public forecast. Weather courtesy of forecast.io.

Closest aviation weather report (METAR) to Chucker Farm Airport

Closest report is Montreal International (Mirabel) Airport, 17.2 nm (31.9 km) NNE. Retrieved 2020/06/04 14:00 UTC (29 minutes ago):

CYMX 041400Z 22005KT 190V290 45SM FEW030 BKN058 18/14 A2973 RMK CU1SC6 SLP071 DENSITY ALT 900FT

Closest aviation forecast (TAF) to Chucker Farm Airport

Closest forecast is Montreal International (Mirabel) Airport, 17.2 nm (31.9 km) NNE. Retrieved 2020/06/04 12:42 UTC (2 hours ago):

TAF CYMX 041138Z 0412/0512 25005KT P6SM FEW010 SCT020 TEMPO 0412/0414 BKN020 FM041400 25012KT P6SM BKN030 FM041700 26012KT P6SM BKN050 BECMG 0422/0424 VRB03KT FM050300 VRB03KT P6SM FEW030 RMK NXT FCST BY 041800Z